sensor_id;sensor_type;location;lat;lon;timestamp;temperature;humidity
4739;DHT22;2383;48.632;10.156;2024-01-15T00:00:20;-3.50;95.30
4739;DHT22;2383;48.632;10.156;2024-01-15T00:04:22;-4.60;95.60
4739;DHT22;2383;48.632;10.156;2024-01-15T00:08:24;-4.40;95.90
4739;DHT22;2383;48.632;10.156;2024-01-15T00:12:26;-3.80;95.50
4739;DHT22;2383;48.632;10.156;2024-01-15T00:16:28;-3.90;95.30
4739;DHT22;2383;48.632;10.156;2024-01-15T00:20:30;-3.80;95.20
4739;DHT22;2383;48.632;10.156;2024-01-15T00:24:32;-4.30;95.70
4739;DHT22;2383;48.632;10.156;2024-01-15T00:28:34;-4.30;95.30
4739;DHT22;2383;48.632;10.156;2024-01-15T00:32:36;-4.30;95.80
4739;DHT22;2383;48.632;10.156;2024-01-15T00:36:38;-4.50;96.40
4739;DHT22;2383;48.632;10.156;2024-01-15T00:40:40;-3.60;95.60
4739;DHT22;2383;48.632;10.156;2024-01-15T00:44:42;-3.60;95.30
4739;DHT22;2383;48.632;10.156;2024-01-15T00:48:44;-3.60;94.90
4739;DHT22;2383;48.632;10.156;2024-01-15T00:52:47;-3.40;95.30
4739;DHT22;2383;48.632;10.156;2024-01-15T00:56:49;-3.90;95.30
4739;DHT22;2383;48.632;10.156;2024-01-15T01:00:51;-3.40;95.40
4739;DHT22;2383;48.632;10.156;2024-01-15T01:04:53;-2.90;95.30
4739;DHT22;2383;48.632;10.156;2024-01-15T01:08:55;-2.40;94.70
4739;DHT22;2383;48.632;10.156;2024-01-15T01:12:57;-3.10;94.60
4739;DHT22;2383;48.632;10.156;2024-01-15T01:16:59;-2.80;94.90
4739;DHT22;2383;48.632;10.156;2024-01-15T01:21:01;-2.50;94.40
4739;DHT22;2383;48.632;10.156;2024-01-15T01:25:03;-2.20;94.20
4739;DHT22;2383;48.632;10.156;2024-01-15T01:29:05;-2.10;93.90
4739;DHT22;2383;48.632;10.156;2024-01-15T01:33:07;-2.20;93.70
4739;DHT22;2383;48.632;10.156;2024-01-15T01:37:10;-2.30;93.60
4739;DHT22;2383;48.632;10.156;2024-01-15T01:41:14;-2.30;93.80
4739;DHT22;2383;48.632;10.156;2024-01-15T01:45:17;-2.40;93.80
4739;DHT22;2383;48.632;10.156;2024-01-15T01:49:19;-2.90;94.20
4739;DHT22;2383;48.632;10.156;2024-01-15T01:53:21;-2.60;94.20
4739;DHT22;2383;48.632;10.156;2024-01-15T01:57:25;-2.60;94.10
4739;DHT22;2383;48.632;10.156;2024-01-15T02:01:27;-2.40;94.00
4739;DHT22;2383;48.632;10.156;2024-01-15T02:05:30;-2.50;93.90
4739;DHT22;2383;48.632;10.156;2024-01-15T02:09:32;-2.40;93.70
4739;DHT22;2383;48.632;10.156;2024-01-15T02:13:34;-2.30;93.40
4739;DHT22;2383;48.632;10.156;2024-01-15T02:17:57;-2.90;93.90
4739;DHT22;2383;48.632;10.156;2024-01-15T02:21:59;-2.70;93.80
4739;DHT22;2383;48.632;10.156;2024-01-15T02:26:01;-3.20;93.90
4739;DHT22;2383;48.632;10.156;2024-01-15T02:30:04;-3.00;94.30
4739;DHT22;2383;48.632;10.156;2024-01-15T02:34:08;-3.90;94.90
4739;DHT22;2383;48.632;10.156;2024-01-15T02:38:10;-3.70;95.50
4739;DHT22;2383;48.632;10.156;2024-01-15T02:42:12;-3.50;95.40
4739;DHT22;2383;48.632;10.156;2024-01-15T02:46:14;-3.50;95.40
4739;DHT22;2383;48.632;10.156;2024-01-15T02:50:16;-3.70;95.40
4739;DHT22;2383;48.632;10.156;2024-01-15T02:54:18;-3.40;96.30
4739;DHT22;2383;48.632;10.156;2024-01-15T02:58:21;-2.80;95.50
4739;DHT22;2383;48.632;10.156;2024-01-15T03:02:23;-2.70;95.00
4739;DHT22;2383;48.632;10.156;2024-01-15T03:06:25;-2.20;94.90
4739;DHT22;2383;48.632;10.156;2024-01-15T03:10:27;-2.00;94.60
4739;DHT22;2383;48.632;10.156;2024-01-15T03:14:29;-2.00;94.60
4739;DHT22;2383;48.632;10.156;2024-01-15T03:18:31;-1.90;94.40
4739;DHT22;2383;48.632;10.156;2024-01-15T03:22:33;-2.20;94.70
4739;DHT22;2383;48.632;10.156;2024-01-15T03:26:35;-2.10;94.80
4739;DHT22;2383;48.632;10.156;2024-01-15T03:30:37;-1.80;94.40
4739;DHT22;2383;48.632;10.156;2024-01-15T03:34:39;-1.60;94.30
4739;DHT22;2383;48.632;10.156;2024-01-15T03:38:41;-1.80;94.30
4739;DHT22;2383;48.632;10.156;2024-01-15T03:42:43;-2.20;94.50
4739;DHT22;2383;48.632;10.156;2024-01-15T03:46:46;-2.20;94.70
4739;DHT22;2383;48.632;10.156;2024-01-15T03:50:47;-2.30;94.80
4739;DHT22;2383;48.632;10.156;2024-01-15T03:54:49;-2.10;94.90
4739;DHT22;2383;48.632;10.156;2024-01-15T03:58:51;-1.60;95.00
4739;DHT22;2383;48.632;10.156;2024-01-15T04:02:53;-1.70;94.50
4739;DHT22;2383;48.632;10.156;2024-01-15T04:06:55;-1.70;94.50
4739;DHT22;2383;48.632;10.156;2024-01-15T04:10:57;-1.50;94.40
4739;DHT22;2383;48.632;10.156;2024-01-15T04:14:59;-1.80;94.60
4739;DHT22;2383;48.632;10.156;2024-01-15T04:19:01;-1.90;94.80
4739;DHT22;2383;48.632;10.156;2024-01-15T04:23:04;-1.50;94.70
4739;DHT22;2383;48.632;10.156;2024-01-15T04:27:07;-1.60;94.50
4739;DHT22;2383;48.632;10.156;2024-01-15T04:31:09;-1.80;94.80
4739;DHT22;2383;48.632;10.156;2024-01-15T04:35:11;-1.70;94.90
4739;DHT22;2383;48.632;10.156;2024-01-15T04:39:14;-1.50;94.80
4739;DHT22;2383;48.632;10.156;2024-01-15T04:43:16;-1.40;94.70
4739;DHT22;2383;48.632;10.156;2024-01-15T04:47:18;-1.40;94.60
4739;DHT22;2383;48.632;10.156;2024-01-15T04:51:20;-1.40;94.60
4739;DHT22;2383;48.632;10.156;2024-01-15T04:55:22;-1.40;94.80
4739;DHT22;2383;48.632;10.156;2024-01-15T04:59:24;-1.30;94.40
4739;DHT22;2383;48.632;10.156;2024-01-15T05:03:26;-1.30;94.50
4739;DHT22;2383;48.632;10.156;2024-01-15T05:07:28;-1.20;94.60
4739;DHT22;2383;48.632;10.156;2024-01-15T05:11:30;-1.40;94.50
4739;DHT22;2383;48.632;10.156;2024-01-15T05:15:32;-1.10;94.50
4739;DHT22;2383;48.632;10.156;2024-01-15T05:19:34;-0.90;94.50
4739;DHT22;2383;48.632;10.156;2024-01-15T05:23:36;-0.70;94.20
4739;DHT22;2383;48.632;10.156;2024-01-15T05:27:38;-0.50;94.30
4739;DHT22;2383;48.632;10.156;2024-01-15T05:31:40;-0.70;94.20
4739;DHT22;2383;48.632;10.156;2024-01-15T05:35:42;-0.70;94.20
4739;DHT22;2383;48.632;10.156;2024-01-15T05:39:44;-0.60;94.20
4739;DHT22;2383;48.632;10.156;2024-01-15T05:43:46;-0.60;94.30
4739;DHT22;2383;48.632;10.156;2024-01-15T05:47:48;-0.50;94.00
4739;DHT22;2383;48.632;10.156;2024-01-15T05:51:51;-0.90;93.70
4739;DHT22;2383;48.632;10.156;2024-01-15T05:55:53;-0.70;93.60
4739;DHT22;2383;48.632;10.156;2024-01-15T05:59:57;-0.80;93.70
4739;DHT22;2383;48.632;10.156;2024-01-15T06:03:59;-0.60;93.60
4739;DHT22;2383;48.632;10.156;2024-01-15T06:08:02;-0.60;93.50
4739;DHT22;2383;48.632;10.156;2024-01-15T06:12:05;-0.50;93.30
4739;DHT22;2383;48.632;10.156;2024-01-15T06:16:16;-0.50;93.00
4739;DHT22;2383;48.632;10.156;2024-01-15T06:20:18;-0.50;93.20
4739;DHT22;2383;48.632;10.156;2024-01-15T06:24:20;-0.50;92.70
4739;DHT22;2383;48.632;10.156;2024-01-15T06:28:22;-0.50;92.80
4739;DHT22;2383;48.632;10.156;2024-01-15T06:32:24;-0.40;93.00
4739;DHT22;2383;48.632;10.156;2024-01-15T06:36:26;-0.50;93.20
4739;DHT22;2383;48.632;10.156;2024-01-15T06:40:28;-0.50;92.80
4739;DHT22;2383;48.632;10.156;2024-01-15T06:44:30;-0.50;92.90
4739;DHT22;2383;48.632;10.156;2024-01-15T06:48:32;-0.40;93.10
4739;DHT22;2383;48.632;10.156;2024-01-15T06:52:35;-0.30;92.90
4739;DHT22;2383;48.632;10.156;2024-01-15T06:56:36;-0.30;92.50
4739;DHT22;2383;48.632;10.156;2024-01-15T07:00:38;-0.10;93.00
4739;DHT22;2383;48.632;10.156;2024-01-15T07:04:42;-0.10;93.00
4739;DHT22;2383;48.632;10.156;2024-01-15T07:08:45;0.00;93.10
4739;DHT22;2383;48.632;10.156;2024-01-15T07:12:47;0.00;92.60
4739;DHT22;2383;48.632;10.156;2024-01-15T07:16:50;-0.30;92.70
4739;DHT22;2383;48.632;10.156;2024-01-15T07:20:52;-0.30;92.40
4739;DHT22;2383;48.632;10.156;2024-01-15T07:24:54;-0.20;92.50
4739;DHT22;2383;48.632;10.156;2024-01-15T07:28:56;-0.20;92.30
4739;DHT22;2383;48.632;10.156;2024-01-15T07:32:58;-0.30;92.10
4739;DHT22;2383;48.632;10.156;2024-01-15T07:37:00;-0.40;92.50
4739;DHT22;2383;48.632;10.156;2024-01-15T07:41:04;-0.60;92.90
4739;DHT22;2383;48.632;10.156;2024-01-15T07:45:06;-0.30;92.50
4739;DHT22;2383;48.632;10.156;2024-01-15T07:49:08;0.00;92.40
4739;DHT22;2383;48.632;10.156;2024-01-15T07:53:10;0.00;92.30
4739;DHT22;2383;48.632;10.156;2024-01-15T07:57:13;0.00;92.50
4739;DHT22;2383;48.632;10.156;2024-01-15T08:01:15;0.10;92.20
4739;DHT22;2383;48.632;10.156;2024-01-15T08:05:18;0.20;92.10
4739;DHT22;2383;48.632;10.156;2024-01-15T08:09:20;0.30;91.90
4739;DHT22;2383;48.632;10.156;2024-01-15T08:13:22;0.20;92.00
4739;DHT22;2383;48.632;10.156;2024-01-15T08:17:24;0.30;92.10
4739;DHT22;2383;48.632;10.156;2024-01-15T08:21:30;0.30;92.40
4739;DHT22;2383;48.632;10.156;2024-01-15T08:25:33;0.00;92.50
4739;DHT22;2383;48.632;10.156;2024-01-15T08:29:35;0.00;92.70
4739;DHT22;2383;48.632;10.156;2024-01-15T08:33:37;0.00;91.90
4739;DHT22;2383;48.632;10.156;2024-01-15T08:37:39;0.00;92.50
4739;DHT22;2383;48.632;10.156;2024-01-15T08:41:42;0.20;92.40
4739;DHT22;2383;48.632;10.156;2024-01-15T08:45:44;0.40;91.90
4739;DHT22;2383;48.632;10.156;2024-01-15T08:49:47;0.40;92.10
4739;DHT22;2383;48.632;10.156;2024-01-15T08:53:49;0.50;92.30
4739;DHT22;2383;48.632;10.156;2024-01-15T08:57:51;0.60;92.00
4739;DHT22;2383;48.632;10.156;2024-01-15T09:01:53;0.60;91.70
4739;DHT22;2383;48.632;10.156;2024-01-15T09:05:55;0.20;91.80
4739;DHT22;2383;48.632;10.156;2024-01-15T09:09:57;0.10;91.10
4739;DHT22;2383;48.632;10.156;2024-01-15T09:14:01;0.00;92.00
4739;DHT22;2383;48.632;10.156;2024-01-15T09:18:03;0.50;91.70
4739;DHT22;2383;48.632;10.156;2024-01-15T09:22:09;0.30;91.30
4739;DHT22;2383;48.632;10.156;2024-01-15T09:26:11;0.70;91.10
4739;DHT22;2383;48.632;10.156;2024-01-15T09:30:13;0.70;90.80
4739;DHT22;2383;48.632;10.156;2024-01-15T09:34:17;0.80;90.60
4739;DHT22;2383;48.632;10.156;2024-01-15T09:38:20;0.70;90.90
4739;DHT22;2383;48.632;10.156;2024-01-15T09:42:24;1.00;90.10
4739;DHT22;2383;48.632;10.156;2024-01-15T09:46:26;1.20;90.60
4739;DHT22;2383;48.632;10.156;2024-01-15T09:50:28;1.10;90.70
4739;DHT22;2383;48.632;10.156;2024-01-15T09:54:30;1.00;89.30
4739;DHT22;2383;48.632;10.156;2024-01-15T09:58:33;1.10;90.20
4739;DHT22;2383;48.632;10.156;2024-01-15T10:02:36;0.70;90.10
4739;DHT22;2383;48.632;10.156;2024-01-15T10:06:39;0.80;90.30
4739;DHT22;2383;48.632;10.156;2024-01-15T10:10:44;1.00;90.20
4739;DHT22;2383;48.632;10.156;2024-01-15T10:14:46;1.00;89.70
4739;DHT22;2383;48.632;10.156;2024-01-15T10:18:51;1.00;90.40
4739;DHT22;2383;48.632;10.156;2024-01-15T10:22:53;1.10;89.10
4739;DHT22;2383;48.632;10.156;2024-01-15T10:27:07;0.80;88.60
4739;DHT22;2383;48.632;10.156;2024-01-15T10:31:09;0.60;89.50
4739;DHT22;2383;48.632;10.156;2024-01-15T10:35:12;0.50;89.50
4739;DHT22;2383;48.632;10.156;2024-01-15T10:39:14;0.80;90.10
4739;DHT22;2383;48.632;10.156;2024-01-15T10:43:16;0.10;89.30
4739;DHT22;2383;48.632;10.156;2024-01-15T10:47:19;-0.40;90.70
4739;DHT22;2383;48.632;10.156;2024-01-15T10:51:22;-0.50;90.80
4739;DHT22;2383;48.632;10.156;2024-01-15T10:55:25;-0.40;90.50
4739;DHT22;2383;48.632;10.156;2024-01-15T10:59:28;-0.40;90.40
4739;DHT22;2383;48.632;10.156;2024-01-15T11:03:31;0.30;90.40
4739;DHT22;2383;48.632;10.156;2024-01-15T11:07:33;0.50;89.80
4739;DHT22;2383;48.632;10.156;2024-01-15T11:11:36;0.80;89.00
4739;DHT22;2383;48.632;10.156;2024-01-15T11:20:00;1.10;87.70
4739;DHT22;2383;48.632;10.156;2024-01-15T11:24:02;0.80;86.70
4739;DHT22;2383;48.632;10.156;2024-01-15T11:28:04;0.90;88.30
4739;DHT22;2383;48.632;10.156;2024-01-15T11:32:07;0.40;87.60
4739;DHT22;2383;48.632;10.156;2024-01-15T11:36:10;0.80;88.50
4739;DHT22;2383;48.632;10.156;2024-01-15T11:40:12;0.90;88.30
4739;DHT22;2383;48.632;10.156;2024-01-15T11:44:16;1.00;89.10
4739;DHT22;2383;48.632;10.156;2024-01-15T11:48:18;0.60;87.80
4739;DHT22;2383;48.632;10.156;2024-01-15T11:52:21;0.90;88.50
4739;DHT22;2383;48.632;10.156;2024-01-15T11:56:23;0.90;87.80
4739;DHT22;2383;48.632;10.156;2024-01-15T12:00:25;0.50;89.00
4739;DHT22;2383;48.632;10.156;2024-01-15T12:04:27;0.80;90.20
4739;DHT22;2383;48.632;10.156;2024-01-15T12:08:29;1.10;90.60
4739;DHT22;2383;48.632;10.156;2024-01-15T12:16:55;-0.10;93.20
4739;DHT22;2383;48.632;10.156;2024-01-15T12:20:57;-0.90;96.10
4739;DHT22;2383;48.632;10.156;2024-01-15T12:25:00;-1.30;97.50
4739;DHT22;2383;48.632;10.156;2024-01-15T12:29:02;-1.50;98.90
4739;DHT22;2383;48.632;10.156;2024-01-15T12:33:05;-1.10;99.80
4739;DHT22;2383;48.632;10.156;2024-01-15T12:37:07;-2.00;99.90
4739;DHT22;2383;48.632;10.156;2024-01-15T12:41:39;-1.50;99.90
4739;DHT22;2383;48.632;10.156;2024-01-15T12:45:41;-0.90;99.90
4739;DHT22;2383;48.632;10.156;2024-01-15T12:49:46;-0.70;99.50
4739;DHT22;2383;48.632;10.156;2024-01-15T12:53:49;-0.30;99.40
4739;DHT22;2383;48.632;10.156;2024-01-15T12:57:51;-0.70;99.30
4739;DHT22;2383;48.632;10.156;2024-01-15T13:01:57;-0.60;99.40
4739;DHT22;2383;48.632;10.156;2024-01-15T13:05:59;-0.90;98.60
4739;DHT22;2383;48.632;10.156;2024-01-15T13:10:01;-1.00;99.50
4739;DHT22;2383;48.632;10.156;2024-01-15T13:14:03;-1.00;99.50
4739;DHT22;2383;48.632;10.156;2024-01-15T13:18:05;-1.80;99.10
4739;DHT22;2383;48.632;10.156;2024-01-15T13:22:08;-2.20;99.90
4739;DHT22;2383;48.632;10.156;2024-01-15T13:26:10;-1.80;99.30
4739;DHT22;2383;48.632;10.156;2024-01-15T13:30:13;-1.00;98.40
4739;DHT22;2383;48.632;10.156;2024-01-15T13:34:15;-1.10;98.50
4739;DHT22;2383;48.632;10.156;2024-01-15T13:38:17;-1.70;99.90
4739;DHT22;2383;48.632;10.156;2024-01-15T13:42:20;-1.90;99.90
4739;DHT22;2383;48.632;10.156;2024-01-15T13:46:25;-1.40;99.90
4739;DHT22;2383;48.632;10.156;2024-01-15T13:50:31;-1.00;99.90
4739;DHT22;2383;48.632;10.156;2024-01-15T13:54:33;-1.10;99.90
4739;DHT22;2383;48.632;10.156;2024-01-15T13:58:50;-0.90;99.90
4739;DHT22;2383;48.632;10.156;2024-01-15T14:02:53;-1.30;99.90
4739;DHT22;2383;48.632;10.156;2024-01-15T14:06:55;-1.50;99.90
4739;DHT22;2383;48.632;10.156;2024-01-15T14:10:57;-1.10;99.90
4739;DHT22;2383;48.632;10.156;2024-01-15T14:15:01;-1.00;99.90
4739;DHT22;2383;48.632;10.156;2024-01-15T14:19:03;-0.70;99.90
4739;DHT22;2383;48.632;10.156;2024-01-15T14:23:05;-1.40;99.90
4739;DHT22;2383;48.632;10.156;2024-01-15T14:27:07;-1.60;99.90
4739;DHT22;2383;48.632;10.156;2024-01-15T14:31:09;-1.60;99.90
4739;DHT22;2383;48.632;10.156;2024-01-15T14:35:11;-1.90;99.90
4739;DHT22;2383;48.632;10.156;2024-01-15T14:39:13;-2.30;99.90
4739;DHT22;2383;48.632;10.156;2024-01-15T14:43:15;-1.90;99.90
4739;DHT22;2383;48.632;10.156;2024-01-15T14:47:17;-1.80;99.90
4739;DHT22;2383;48.632;10.156;2024-01-15T14:51:22;-1.60;99.90
4739;DHT22;2383;48.632;10.156;2024-01-15T14:55:24;-2.00;99.90
4739;DHT22;2383;48.632;10.156;2024-01-15T14:59:26;-2.20;99.90
4739;DHT22;2383;48.632;10.156;2024-01-15T15:03:30;-2.40;99.90
4739;DHT22;2383;48.632;10.156;2024-01-15T15:07:32;-2.70;99.90
4739;DHT22;2383;48.632;10.156;2024-01-15T15:11:35;-2.40;99.90
4739;DHT22;2383;48.632;10.156;2024-01-15T15:15:38;-2.60;99.90
4739;DHT22;2383;48.632;10.156;2024-01-15T15:19:40;-2.60;99.90
4739;DHT22;2383;48.632;10.156;2024-01-15T15:23:42;-2.30;99.90
4739;DHT22;2383;48.632;10.156;2024-01-15T15:27:44;-2.60;99.90
4739;DHT22;2383;48.632;10.156;2024-01-15T15:31:46;-2.70;99.90
4739;DHT22;2383;48.632;10.156;2024-01-15T15:35:50;-3.10;99.90
4739;DHT22;2383;48.632;10.156;2024-01-15T15:39:53;-2.90;99.90
4739;DHT22;2383;48.632;10.156;2024-01-15T15:43:55;-2.20;99.90
4739;DHT22;2383;48.632;10.156;2024-01-15T15:47:57;-2.30;99.90
4739;DHT22;2383;48.632;10.156;2024-01-15T15:51:59;-2.70;99.90
4739;DHT22;2383;48.632;10.156;2024-01-15T15:56:01;-2.90;99.90
4739;DHT22;2383;48.632;10.156;2024-01-15T16:00:04;-2.60;99.90
4739;DHT22;2383;48.632;10.156;2024-01-15T16:04:12;-3.00;99.90
4739;DHT22;2383;48.632;10.156;2024-01-15T16:08:16;-3.30;99.90
4739;DHT22;2383;48.632;10.156;2024-01-15T16:12:19;-3.80;99.90
4739;DHT22;2383;48.632;10.156;2024-01-15T16:16:21;-4.00;99.90
4739;DHT22;2383;48.632;10.156;2024-01-15T16:20:43;-3.40;99.90
4739;DHT22;2383;48.632;10.156;2024-01-15T16:25:06;-3.90;99.90
4739;DHT22;2383;48.632;10.156;2024-01-15T16:29:08;-3.40;99.90
4739;DHT22;2383;48.632;10.156;2024-01-15T16:33:11;-3.40;99.90
4739;DHT22;2383;48.632;10.156;2024-01-15T16:37:14;-3.70;99.90
4739;DHT22;2383;48.632;10.156;2024-01-15T16:41:17;-3.60;99.90
4739;DHT22;2383;48.632;10.156;2024-01-15T16:45:19;-3.40;99.90
4739;DHT22;2383;48.632;10.156;2024-01-15T16:49:20;-3.60;99.90
4739;DHT22;2383;48.632;10.156;2024-01-15T16:53:22;-4.00;99.90
4739;DHT22;2383;48.632;10.156;2024-01-15T16:57:24;-3.70;99.90
4739;DHT22;2383;48.632;10.156;2024-01-15T17:01:27;-4.30;99.90
4739;DHT22;2383;48.632;10.156;2024-01-15T17:05:29;-4.40;99.90
4739;DHT22;2383;48.632;10.156;2024-01-15T17:09:31;-4.70;99.90
4739;DHT22;2383;48.632;10.156;2024-01-15T17:13:33;-4.60;99.90
4739;DHT22;2383;48.632;10.156;2024-01-15T17:17:36;-4.30;99.90
4739;DHT22;2383;48.632;10.156;2024-01-15T17:21:38;-4.40;99.90
4739;DHT22;2383;48.632;10.156;2024-01-15T17:25:41;-4.80;99.90
4739;DHT22;2383;48.632;10.156;2024-01-15T17:29:43;-3.90;99.90
4739;DHT22;2383;48.632;10.156;2024-01-15T17:33:45;-4.10;99.90
4739;DHT22;2383;48.632;10.156;2024-01-15T17:37:47;-4.50;99.90
4739;DHT22;2383;48.632;10.156;2024-01-15T17:41:49;-4.40;99.90
4739;DHT22;2383;48.632;10.156;2024-01-15T17:45:51;-4.50;99.90
4739;DHT22;2383;48.632;10.156;2024-01-15T17:49:54;-4.40;99.90
4739;DHT22;2383;48.632;10.156;2024-01-15T17:53:57;-4.50;99.90
4739;DHT22;2383;48.632;10.156;2024-01-15T17:57:59;-4.70;99.90
4739;DHT22;2383;48.632;10.156;2024-01-15T18:02:00;-4.80;99.90
4739;DHT22;2383;48.632;10.156;2024-01-15T18:06:03;-4.50;99.90
4739;DHT22;2383;48.632;10.156;2024-01-15T18:10:06;-4.60;99.90
4739;DHT22;2383;48.632;10.156;2024-01-15T18:14:08;-4.60;99.90
4739;DHT22;2383;48.632;10.156;2024-01-15T18:18:10;-4.60;99.90
4739;DHT22;2383;48.632;10.156;2024-01-15T18:22:12;-4.40;99.90
4739;DHT22;2383;48.632;10.156;2024-01-15T18:26:18;-4.50;99.90
4739;DHT22;2383;48.632;10.156;2024-01-15T18:30:20;-4.40;99.90
4739;DHT22;2383;48.632;10.156;2024-01-15T18:34:22;-4.40;99.90
4739;DHT22;2383;48.632;10.156;2024-01-15T18:38:25;-4.50;99.90
4739;DHT22;2383;48.632;10.156;2024-01-15T18:42:27;-4.60;99.90
4739;DHT22;2383;48.632;10.156;2024-01-15T18:46:29;-4.60;99.90
4739;DHT22;2383;48.632;10.156;2024-01-15T18:50:32;-4.80;99.90
4739;DHT22;2383;48.632;10.156;2024-01-15T18:54:34;-4.60;99.90
4739;DHT22;2383;48.632;10.156;2024-01-15T18:58:35;-4.70;99.90
4739;DHT22;2383;48.632;10.156;2024-01-15T19:02:43;-5.20;99.90
4739;DHT22;2383;48.632;10.156;2024-01-15T19:06:45;-4.90;99.90
4739;DHT22;2383;48.632;10.156;2024-01-15T19:10:50;-5.10;99.90
4739;DHT22;2383;48.632;10.156;2024-01-15T19:14:51;-4.90;99.90
4739;DHT22;2383;48.632;10.156;2024-01-15T19:18:53;-4.60;99.90
4739;DHT22;2383;48.632;10.156;2024-01-15T19:22:55;-4.90;99.90
4739;DHT22;2383;48.632;10.156;2024-01-15T19:26:57;-4.80;99.90
4739;DHT22;2383;48.632;10.156;2024-01-15T19:30:59;-5.00;99.90
4739;DHT22;2383;48.632;10.156;2024-01-15T19:35:03;-4.60;99.90
4739;DHT22;2383;48.632;10.156;2024-01-15T19:39:05;-4.80;99.90
4739;DHT22;2383;48.632;10.156;2024-01-15T19:43:11;-4.70;99.90
4739;DHT22;2383;48.632;10.156;2024-01-15T19:47:13;-4.60;99.90
4739;DHT22;2383;48.632;10.156;2024-01-15T19:51:15;-5.00;99.90
4739;DHT22;2383;48.632;10.156;2024-01-15T19:55:17;-5.00;99.90
4739;DHT22;2383;48.632;10.156;2024-01-15T19:59:19;-4.90;99.90
4739;DHT22;2383;48.632;10.156;2024-01-15T20:03:21;-4.70;99.90
4739;DHT22;2383;48.632;10.156;2024-01-15T20:07:23;-5.20;99.90
4739;DHT22;2383;48.632;10.156;2024-01-15T20:11:25;-5.50;99.90
4739;DHT22;2383;48.632;10.156;2024-01-15T20:15:27;-5.20;99.90
4739;DHT22;2383;48.632;10.156;2024-01-15T20:19:30;-4.90;99.90
4739;DHT22;2383;48.632;10.156;2024-01-15T20:23:33;-5.00;99.90
4739;DHT22;2383;48.632;10.156;2024-01-15T20:27:40;-4.40;99.90
4739;DHT22;2383;48.632;10.156;2024-01-15T20:31:43;-4.30;99.30
4739;DHT22;2383;48.632;10.156;2024-01-15T20:35:45;-4.40;99.30
4739;DHT22;2383;48.632;10.156;2024-01-15T20:39:47;-4.80;99.20
4739;DHT22;2383;48.632;10.156;2024-01-15T20:43:49;-4.80;99.50
4739;DHT22;2383;48.632;10.156;2024-01-15T20:47:51;-4.50;99.60
4739;DHT22;2383;48.632;10.156;2024-01-15T20:51:53;-4.90;98.60
4739;DHT22;2383;48.632;10.156;2024-01-15T20:55:55;-4.80;99.10
4739;DHT22;2383;48.632;10.156;2024-01-15T20:59:58;-4.90;99.20
4739;DHT22;2383;48.632;10.156;2024-01-15T21:04:00;-4.90;99.50
4739;DHT22;2383;48.632;10.156;2024-01-15T21:08:03;-4.60;98.50
4739;DHT22;2383;48.632;10.156;2024-01-15T21:12:05;-4.20;98.70
4739;DHT22;2383;48.632;10.156;2024-01-15T21:16:11;-4.00;98.00
4739;DHT22;2383;48.632;10.156;2024-01-15T21:20:14;-3.70;97.40
4739;DHT22;2383;48.632;10.156;2024-01-15T21:24:15;-3.60;97.40
4739;DHT22;2383;48.632;10.156;2024-01-15T21:28:18;-3.30;97.40
4739;DHT22;2383;48.632;10.156;2024-01-15T21:32:20;-2.80;96.30
4739;DHT22;2383;48.632;10.156;2024-01-15T21:36:22;-2.60;96.60
4739;DHT22;2383;48.632;10.156;2024-01-15T21:40:24;-3.20;96.10
4739;DHT22;2383;48.632;10.156;2024-01-15T21:44:26;-2.90;96.40
4739;DHT22;2383;48.632;10.156;2024-01-15T21:48:28;-2.40;95.70
4739;DHT22;2383;48.632;10.156;2024-01-15T21:52:30;-2.50;95.20
4739;DHT22;2383;48.632;10.156;2024-01-15T21:56:32;-2.80;95.50
4739;DHT22;2383;48.632;10.156;2024-01-15T22:00:34;-2.60;95.80
4739;DHT22;2383;48.632;10.156;2024-01-15T22:04:36;-1.90;95.20
4739;DHT22;2383;48.632;10.156;2024-01-15T22:08:39;-1.10;95.30
4739;DHT22;2383;48.632;10.156;2024-01-15T22:12:41;-1.30;93.90
4739;DHT22;2383;48.632;10.156;2024-01-15T22:16:42;-1.40;93.70
4739;DHT22;2383;48.632;10.156;2024-01-15T22:20:44;-2.10;94.50
4739;DHT22;2383;48.632;10.156;2024-01-15T22:24:47;-1.80;94.90
4739;DHT22;2383;48.632;10.156;2024-01-15T22:28:49;-2.20;93.90
4739;DHT22;2383;48.632;10.156;2024-01-15T22:32:51;-2.80;94.80
4739;DHT22;2383;48.632;10.156;2024-01-15T22:36:53;-2.80;95.20
4739;DHT22;2383;48.632;10.156;2024-01-15T22:40:54;-2.80;94.70
4739;DHT22;2383;48.632;10.156;2024-01-15T22:44:56;-3.20;95.30
4739;DHT22;2383;48.632;10.156;2024-01-15T22:48:59;-2.90;95.60
4739;DHT22;2383;48.632;10.156;2024-01-15T22:53:01;-2.70;95.00
4739;DHT22;2383;48.632;10.156;2024-01-15T22:57:03;-3.00;95.30
4739;DHT22;2383;48.632;10.156;2024-01-15T23:01:05;-3.80;95.40
4739;DHT22;2383;48.632;10.156;2024-01-15T23:05:07;-3.30;95.90
4739;DHT22;2383;48.632;10.156;2024-01-15T23:09:10;-2.50;95.00
4739;DHT22;2383;48.632;10.156;2024-01-15T23:13:12;-2.50;95.10
4739;DHT22;2383;48.632;10.156;2024-01-15T23:17:15;-2.40;94.40
4739;DHT22;2383;48.632;10.156;2024-01-15T23:21:17;-2.30;95.20
4739;DHT22;2383;48.632;10.156;2024-01-15T23:25:19;-2.40;94.60
4739;DHT22;2383;48.632;10.156;2024-01-15T23:29:21;-1.80;94.90
4739;DHT22;2383;48.632;10.156;2024-01-15T23:33:23;-1.60;94.40
4739;DHT22;2383;48.632;10.156;2024-01-15T23:37:25;-1.80;93.70
4739;DHT22;2383;48.632;10.156;2024-01-15T23:41:27;-2.30;94.40
4739;DHT22;2383;48.632;10.156;2024-01-15T23:45:29;-2.20;94.40
4739;DHT22;2383;48.632;10.156;2024-01-15T23:49:31;-2.10;94.90
4739;DHT22;2383;48.632;10.156;2024-01-15T23:53:33;-1.90;94.30
4739;DHT22;2383;48.632;10.156;2024-01-15T23:57:35;-1.90;94.20
